createdAt,value
2022-10-10T00:02:26.480Z,52.10
2022-10-10T00:07:29.516Z,52.00
2022-10-10T00:12:33.929Z,52.10
2022-10-10T00:17:36.951Z,52.10
2022-10-10T00:22:40.317Z,52.00
2022-10-10T00:27:44.709Z,52.10
2022-10-10T00:32:48.181Z,52.10
2022-10-10T00:37:51.631Z,52.00
2022-10-10T00:42:56.240Z,52.10
2022-10-10T00:48:03.664Z,52.10
2022-10-10T00:53:09.461Z,52.10
2022-10-10T00:58:15.395Z,52.10
2022-10-10T01:03:18.402Z,52.10
2022-10-10T01:08:22.988Z,52.00
2022-10-10T01:13:33.701Z,52.10
2022-10-10T01:18:42.988Z,52.10
2022-10-10T01:24:05.516Z,52.10
2022-10-10T01:29:14.689Z,52.10
2022-10-10T01:34:25.900Z,52.10
2022-10-10T01:39:37.578Z,52.10
2022-10-10T01:44:45.726Z,52.10
2022-10-10T01:49:52.021Z,52.10
2022-10-10T01:55:04.601Z,52.10
2022-10-10T02:00:12.106Z,52.10
2022-10-10T02:05:21.643Z,52.10
2022-10-10T02:10:29.289Z,52.10
2022-10-10T02:15:39.055Z,52.10
2022-10-10T02:20:44.735Z,52.10
2022-10-10T02:25:53.263Z,52.10
2022-10-10T02:31:02.195Z,52.10
2022-10-10T02:36:06.405Z,52.10
2022-10-10T02:41:12.564Z,52.10
2022-10-10T02:46:17.969Z,52.10
2022-10-10T02:51:21.263Z,52.80
2022-10-10T02:56:24.294Z,52.20
2022-10-10T03:01:28.724Z,52.20
2022-10-10T03:06:32.424Z,52.20
2022-10-10T03:11:35.464Z,52.20
2022-10-10T03:16:39.881Z,52.20
2022-10-10T03:21:42.920Z,52.20
2022-10-10T03:26:45.975Z,52.20
2022-10-10T03:31:50.387Z,52.20
2022-10-10T03:36:53.463Z,52.20
2022-10-10T03:41:56.479Z,52.20
2022-10-10T03:47:00.880Z,52.20
2022-10-10T03:52:03.896Z,52.20
2022-10-10T03:57:06.908Z,52.20
2022-10-10T04:02:11.369Z,52.20
2022-10-10T04:07:14.480Z,52.20
2022-10-10T04:12:17.548Z,52.30
2022-10-10T04:17:21.959Z,52.30
2022-10-10T04:22:24.999Z,52.30
2022-10-10T04:27:28.003Z,52.30
2022-10-10T04:32:32.879Z,52.30
2022-10-10T04:37:37.149Z,52.30
2022-10-10T04:42:40.192Z,52.30
2022-10-10T04:47:44.729Z,52.30
2022-10-10T04:52:47.942Z,52.30
2022-10-10T04:57:51.093Z,52.30
2022-10-10T05:02:55.512Z,52.30
2022-10-10T05:07:58.529Z,52.30
2022-10-10T05:13:01.605Z,52.40
2022-10-10T05:18:06.368Z,52.30
2022-10-10T05:23:10.512Z,52.30
2022-10-10T05:28:13.560Z,52.30
2022-10-10T05:33:18.052Z,52.30
2022-10-10T05:38:21.078Z,52.30
2022-10-10T05:43:24.112Z,52.30
2022-10-10T05:48:28.814Z,52.40
2022-10-10T05:53:31.845Z,52.30
2022-10-10T05:58:34.897Z,52.40
2022-10-10T06:03:39.320Z,52.40
2022-10-10T06:08:42.425Z,52.40
2022-10-10T06:13:45.479Z,52.40
2022-10-10T06:18:49.884Z,52.40
2022-10-10T06:23:53.267Z,52.30
2022-10-10T06:28:56.320Z,52.40
2022-10-10T06:34:00.759Z,52.40
2022-10-10T06:39:03.799Z,52.40
2022-10-10T06:44:07.693Z,52.30
2022-10-10T06:49:12.131Z,52.30
2022-10-10T06:54:15.159Z,52.30
2022-10-10T06:59:18.209Z,52.40
2022-10-10T07:04:22.652Z,52.30
2022-10-10T07:09:25.719Z,52.30
2022-10-10T07:14:28.836Z,52.40
2022-10-10T07:19:33.223Z,52.40
2022-10-10T07:24:37.028Z,52.40
2022-10-10T07:29:40.145Z,52.40
2022-10-10T07:34:44.659Z,52.30
2022-10-10T07:39:47.731Z,52.30
2022-10-10T07:44:50.863Z,52.30
2022-10-10T07:49:55.260Z,52.30
2022-10-10T07:54:58.302Z,52.30
2022-10-10T08:00:01.473Z,52.30
2022-10-10T08:05:06.644Z,52.40
2022-10-10T08:10:10.812Z,52.30
2022-10-10T08:15:14.027Z,52.30
2022-10-10T08:20:18.616Z,52.90
2022-10-10T08:25:21.669Z,52.30
2022-10-10T08:30:24.726Z,52.20
2022-10-10T08:35:29.170Z,52.20
2022-10-10T08:40:32.916Z,52.20
2022-10-10T08:45:37.863Z,52.20
2022-10-10T08:50:47.368Z,52.20
2022-10-10T08:55:51.161Z,52.20
2022-10-10T09:01:03.068Z,52.10
2022-10-10T09:06:23.952Z,52.20
2022-10-10T09:11:42.554Z,52.20
2022-10-10T09:16:54.272Z,52.10
2022-10-10T09:22:01.696Z,52.10
2022-10-10T09:27:07.372Z,52.00
2022-10-10T09:32:14.236Z,52.00
2022-10-10T09:37:42.281Z,52.00
2022-10-10T09:42:46.019Z,52.00
2022-10-10T09:47:56.047Z,52.00
2022-10-10T09:53:00.564Z,51.90
2022-10-10T09:58:13.205Z,51.90
2022-10-10T10:03:17.893Z,51.90
2022-10-10T10:08:26.052Z,51.90
2022-10-10T10:13:32.106Z,51.90
2022-10-10T10:18:41.841Z,51.90
2022-10-10T10:23:53.336Z,51.80
2022-10-10T10:28:59.061Z,51.90
2022-10-10T10:34:17.611Z,51.80
2022-10-10T10:39:34.504Z,51.90
2022-10-10T10:44:43.478Z,51.90
2022-10-10T10:49:57.624Z,51.90
2022-10-10T10:55:24.668Z,51.80
2022-10-10T11:01:23.795Z,51.90
2022-10-10T11:06:05.887Z,51.90
2022-10-10T11:11:26.945Z,51.80
2022-10-10T11:16:48.015Z,52.00
2022-10-10T11:21:58.328Z,51.90
2022-10-10T11:27:08.544Z,52.00
2022-10-10T11:32:15.974Z,51.90
2022-10-10T11:37:26.708Z,51.90
2022-10-10T11:42:37.399Z,51.90
2022-10-10T11:47:43.531Z,51.80
2022-10-10T11:52:53.365Z,51.80
2022-10-10T11:58:19.457Z,51.70
2022-10-10T12:03:22.516Z,51.70
2022-10-10T12:08:29.931Z,51.70
2022-10-10T12:13:36.400Z,51.70
2022-10-10T12:18:46.166Z,51.70
2022-10-10T12:23:52.036Z,51.80
2022-10-10T12:29:05.352Z,51.80
2022-10-10T12:34:15.012Z,51.80
2022-10-10T12:39:39.177Z,51.80
2022-10-10T12:44:47.599Z,51.70
2022-10-10T12:49:51.524Z,51.70
2022-10-10T12:54:56.398Z,51.70
2022-10-10T13:00:07.253Z,51.80
2022-10-10T13:05:13.407Z,51.80
2022-10-10T13:10:25.645Z,51.80
2022-10-10T13:15:30.976Z,51.80
2022-10-10T13:20:38.011Z,51.80
2022-10-10T13:25:41.649Z,51.80
2022-10-10T13:30:46.987Z,51.80
2022-10-10T13:35:51.549Z,51.80
2022-10-10T13:40:54.753Z,51.80
2022-10-10T13:46:00.884Z,51.90
2022-10-10T13:51:08.091Z,51.90
2022-10-10T13:56:16.027Z,51.90
2022-10-10T14:01:30.801Z,51.90
2022-10-10T14:06:34.304Z,51.90
2022-10-10T14:11:37.865Z,52.00
2022-10-10T14:16:42.353Z,51.90
2022-10-10T14:21:45.413Z,52.00
2022-10-10T14:26:48.563Z,51.90
2022-10-10T14:31:52.965Z,52.00
2022-10-10T14:36:56.053Z,52.00
2022-10-10T14:41:59.614Z,52.00
2022-10-10T14:47:04.043Z,52.00
2022-10-10T14:52:08.559Z,52.00
2022-10-10T14:57:13.222Z,52.00
2022-10-10T15:02:21.185Z,52.60
2022-10-10T15:07:24.311Z,52.10
2022-10-10T15:12:27.445Z,52.00
2022-10-10T15:17:34.333Z,52.00
2022-10-10T15:22:38.272Z,52.10
2022-10-10T15:27:41.400Z,52.70
2022-10-10T15:32:45.827Z,52.10
2022-10-10T15:37:49.504Z,52.20
2022-10-10T15:42:52.854Z,52.20
2022-10-10T15:47:57.263Z,52.20
2022-10-10T15:53:00.292Z,52.20
2022-10-10T15:58:04.135Z,52.20
2022-10-10T16:03:08.869Z,52.20
2022-10-10T16:08:12.414Z,52.20
2022-10-10T16:13:15.416Z,52.20
2022-10-10T16:18:19.823Z,52.20
2022-10-10T16:23:22.952Z,52.20
2022-10-10T16:28:26.160Z,52.20
2022-10-10T16:33:32.520Z,52.20
2022-10-10T16:38:35.597Z,52.20
2022-10-10T16:43:39.159Z,52.80
2022-10-10T16:48:44.234Z,52.30
2022-10-10T16:53:47.775Z,52.30
2022-10-10T16:58:51.796Z,52.30
2022-10-10T17:03:56.291Z,52.30
2022-10-10T17:09:00.243Z,52.30
2022-10-10T17:14:03.260Z,52.30
2022-10-10T17:19:07.859Z,52.40
2022-10-10T17:24:11.476Z,52.40
2022-10-10T17:29:15.068Z,52.40
2022-10-10T17:34:19.610Z,52.50
2022-10-10T17:39:22.712Z,52.40
2022-10-10T17:44:25.812Z,52.50
2022-10-10T17:49:30.216Z,52.50
2022-10-10T17:54:33.247Z,52.50
2022-10-10T17:59:36.304Z,52.60
2022-10-10T18:04:41.544Z,52.60
2022-10-10T18:09:44.619Z,52.60
2022-10-10T18:14:47.788Z,52.70
2022-10-10T18:19:52.178Z,52.70
2022-10-10T18:24:55.214Z,52.70
2022-10-10T18:29:58.305Z,52.70
2022-10-10T18:35:02.756Z,52.70
2022-10-10T18:40:07.134Z,52.70
2022-10-10T18:45:10.862Z,52.80
2022-10-10T18:50:15.271Z,52.70
2022-10-10T18:55:18.939Z,52.80
2022-10-10T19:00:25.175Z,52.70
2022-10-10T19:05:29.645Z,52.70
2022-10-10T19:10:32.683Z,52.70
2022-10-10T19:15:35.735Z,52.70
2022-10-10T19:20:40.452Z,52.70
2022-10-10T19:25:44.359Z,52.80
2022-10-10T19:30:47.842Z,52.70
2022-10-10T19:35:52.507Z,52.80
2022-10-10T19:40:55.650Z,52.80
2022-10-10T19:45:58.660Z,52.70
2022-10-10T19:51:06.139Z,52.80
2022-10-10T19:56:12.562Z,52.80
2022-10-10T20:01:17.965Z,52.80
2022-10-10T20:06:22.875Z,52.80
2022-10-10T20:11:26.795Z,52.80
2022-10-10T20:16:30.179Z,52.80
2022-10-10T20:21:34.987Z,52.80
2022-10-10T20:26:38.096Z,52.80
2022-10-10T20:31:41.272Z,52.90
2022-10-10T20:36:45.893Z,52.80
2022-10-10T20:41:48.946Z,52.90
2022-10-10T20:46:51.980Z,52.80
2022-10-10T20:51:56.708Z,52.90
2022-10-10T20:56:59.722Z,52.80
2022-10-10T21:02:02.819Z,52.80
2022-10-10T21:07:07.649Z,52.90
2022-10-10T21:12:10.701Z,52.80
2022-10-10T21:17:13.751Z,52.90
2022-10-10T21:22:18.263Z,52.90
2022-10-10T21:27:21.316Z,52.90
2022-10-10T21:32:24.397Z,52.90
2022-10-10T21:37:29.553Z,52.90
2022-10-10T21:42:32.588Z,52.90
2022-10-10T21:47:35.628Z,52.90
2022-10-10T21:52:40.048Z,52.90
2022-10-10T21:57:43.072Z,52.90
2022-10-10T22:02:46.948Z,53.00
2022-10-10T22:07:51.382Z,53.00
2022-10-10T22:12:55.011Z,53.00
2022-10-10T22:17:58.464Z,53.00
2022-10-10T22:23:02.872Z,53.00
2022-10-10T22:28:06.493Z,53.00
2022-10-10T22:33:09.937Z,53.00
2022-10-10T22:38:14.368Z,53.00
2022-10-10T22:43:17.423Z,53.00
2022-10-10T22:48:20.502Z,53.00
2022-10-10T22:53:25.121Z,53.00
2022-10-10T22:58:28.401Z,53.00
2022-10-10T23:03:31.437Z,53.00
2022-10-10T23:08:36.476Z,53.10
2022-10-10T23:13:39.586Z,53.00
2022-10-10T23:18:42.619Z,53.10
2022-10-10T23:23:47.095Z,53.00
2022-10-10T23:28:51.182Z,53.10
2022-10-10T23:33:54.294Z,53.10
2022-10-10T23:38:58.732Z,53.00
2022-10-10T23:44:01.728Z,53.00
2022-10-10T23:49:04.771Z,53.00
2022-10-10T23:54:09.181Z,53.00
2022-10-10T23:59:12.197Z,53.00
